Tabertown, Indiana
Current Conditions -  °F | °C
As of 3:53 PM on Thursday 27 Nov 2014 (Local Time) from KHUF Reporting Station
Overcast Overcast  
Wind Chill: 20°   Ceiling: 3700
Heat Index: 29°   Visibility: 10mi
Dew Point: 21°   Wind: 9mph
Humidity: 72%   Direction: 300°WNW
Pressure: 30.39"   Gusts: NA
Location:  39.4921°N, 87.2651°W
Report Text: KHUF 272053Z 30008KT 10SM FEW020 SCT025 OVC037 M02/M06 A3039 RMK AO2 SNE45 SLP298 P0000 60000 T10171061 53000
Loading
Personal Weather Stations






























Interactive Weather Map New forecast layout! Learn more

10-Day Weather Forecast

Advertisements
Track Severe Weather on mobile